Haines, AK

2:17 AM AKDT on August 30, 2014 (GMT -0800)
Juneau International | Change Station
CLOSE
Current Station
Airport
Location: Juneau,
Elevation: 23 ft
Nearby Weather Stations

Elev 23 ft 58.35 °N, 134.58 °W | Updated 24 minutes ago

Overcast
Overcast
51 °F
Feels Like 51 °F
N
6
Wind Variable Wind from East

Today
High -- | Low -- °F
--% Chance of Precip.
Yesterday
High -- | Low -- °F
Precip. -- in
5:54 AM 8:08 PM
Waxing Crescent, 21% visible
Pressure 29.59 in
Visibility 10.0 miles
Clouds Scattered Clouds 600 ft
Mostly Cloudy 3300 ft
Overcast 4100 ft
Dew Point 50 °F
Humidity 96%
Rainfall 0.00 in
Snow Depth Not available.
UV 0 out of 12
Pollen Not available.
Air Quality Not available.
Flu Activity Not available.
METAR PAJN 300953Z 09005KT 10SM SCT006 BKN033 OVC041 11/10 A2959 RMK AO2 SLP018 T01060100 $

More Conditions Fewer Conditions

Pressure 29.59 in
Visibility 10.0 miles
Clouds Scattered Clouds 600 ft
Mostly Cloudy 3300 ft
Overcast 4100 ft
Dew Point 50 °F
Humidity 96%
Rainfall 0.00 in
Snow Depth Not available.
UV 0 out of 12
Pollen Not available.
Air Quality Not available.
Flu Activity Not available.
METAR PAJN 300953Z 09005KT 10SM SCT006 BKN033 OVC041 11/10 A2959 RMK AO2 SLP018 T01060100 $

More Conditions Fewer Conditions

10-Day Weather Forecast

Almanac

Astronomy

Aug. 30, 2014 Rise Set
Actual Time 5:54 AM AKDT 8:08 PM AKDT
Civil Twilight 5:10 AM AKDT 8:52 PM AKDT
Nautical Twilight 4:12 AM AKDT 9:49 PM AKDT
Astronomical Twilight 2:57 AM AKDT 11:02 PM AKDT
Moon 12:08 PM AKDT 9:26 PM AKDT
Length of Visible Light 15h 42m
Length of Day
14h 14m
Tomorrow will be 5m 11s shorter.
Waxing Crescent, 21% of the Moon is Illuminated
Today
Waxing Crescent
Sep 2
First Quarter
Sep 8
Full
Sep 15
Last Quarter
Sep 24
New

Today's Extremes

State Highs State Lows

Community

WunderPhotos

Upload Photos

1,748,481 photos uploaded!

Nearby

Snow Depth

Station Depth Elevation
Long Lake 0 in 820 ft
Upper Tsaina River 0 in 1750 ft
Moraine 0 in 2100 ft
Granite Creek 0 in 1240 ft
Grandview 0 in 1100 ft

Earthquake Activity

City Distance Mag. Time & Date
No recent earthquake activity has been reported nearby.
Minimum magnitude displayed is 2.5.

Coastal Water Temperatures

Place Temperature
No Stations Reporting

Nearby Weather Stations